Gaschem Phoenix — ELUO6 — position and weather

sailwx.info

Track history (hours):
 
Tides and Currents Weather Stations Pressure Air Temp Water Temp Dewpoint Dewpoint Depression Visibility Wind Speed Wind Dir Waves Ship Positions

Gaschem Phoenix

Last reported at 2017-Jan-19 02:17 UTC. Time now 2017-Jan-19 17:07 UTC.
Position N 32°04' E 120°31'.

Length 100 m; draft 5.7 m.

Type: Ship. MMSI: 636090235.

Date/timePositionNaut miles runAvg speedWind from/ knotsBaromVisibWave heightAir tempDewpointWater temp
2017-Jan-19 02:17N 32°04' E 120°31'3110.8
2017-Jan-18 23:26N 31°47' E 121°00'1213.3
2017-Jan-18 22:33N 31°40' E 121°12'10 9.6
2017-Jan-18 21:33N 31°34' E 121°21'0 0.0
2017-Jan-18 20:32N 31°34' E 121°21'0 0.1
2017-Jan-18 19:32N 31°34' E 121°21'0 0.1
2017-Jan-18 18:31N 31°34' E 121°21'0 0.0
2017-Jan-18 17:31N 31°34' E 121°21'0 0.0
2017-Jan-18 16:33N 31°34' E 121°21'0 0.0
2017-Jan-18 15:33N 31°34' E 121°21'0 0.0
2017-Jan-18 14:32N 31°34' E 121°21'0 0.0
2017-Jan-18 13:32N 31°34' E 121°21'0 0.0
2017-Jan-18 12:29N 31°34' E 121°21'0 0.1
2017-Jan-18 11:31N 31°34' E 121°21'0 0.1
2017-Jan-18 10:31N 31°34' E 121°21'0 0.0
2017-Jan-18 09:33N 31°34' E 121°21'4 4.0
2017-Jan-18 08:34N 31°31' E 121°24'1111.0
2017-Jan-18 07:34N 31°24' E 121°34'9 9.2
2017-Jan-18 06:34N 31°19' E 121°43'1211.7
2017-Jan-18 05:33N 31°10' E 121°52'1312.8
2017-Jan-18 04:33N 31°04' E 122°05'  
2017-Jan-12 19:33N 31°02' E 122°16'1414.5
2017-Jan-12 18:33N 31°06' E 121°59'1414.0
2017-Jan-12 17:33N 31°15' E 121°47'1110.8
2017-Jan-12 16:33N 31°22' E 121°37'8 7.9
2017-Jan-12 15:33N 31°26' E 121°29'5 5.0
2017-Jan-12 14:34N 31°30' E 121°25'1110.6
2017-Jan-12 13:33N 31°37' E 121°16'1312.6
2017-Jan-12 12:34N 31°45' E 121°05'3711.6
2017-Jan-12 09:24N 32°02' E 120°27'2 0.0
2017-Jan-10 11:31N 32°02' E 120°24'38 9.6
2017-Jan-10 07:33N 31°46' E 121°05'1211.9
2017-Jan-10 06:33N 31°38' E 121°15'1211.8
2017-Jan-10 05:33N 31°30' E 121°25'9 9.3
2017-Jan-10 04:33N 31°24' E 121°34'1010.1
2017-Jan-10 03:33N 31°18' E 121°43'1211.7
2017-Jan-10 02:33N 31°09' E 121°53'1111.3
2017-Jan-10 01:33N 31°04' E 122°04'1110.8
2017-Jan-10 00:33N 31°03' E 122°17'  
Track history (hours):
 
Tides and Currents Weather Stations Pressure Air Temp Water Temp Dewpoint Dewpoint Depression Visibility Wind Speed Wind Dir Waves Ship Positions

Gaschem Phoenix

Last reported at 2017-Jan-19 02:17 UTC. Time now 2017-Jan-19 17:07 UTC.
Position N 32°04' E 120°31'.

Length 100 m; draft 5.7 m.

Type: Ship. MMSI: 636090235.

Date/timePositionNaut miles runAvg speedWind from/ knotsBaromVisibWave heightAir tempDewpointWater temp
2017-Jan-19 02:17N 32°04' E 120°31'3110.8
2017-Jan-18 23:26N 31°47' E 121°00'1213.3
2017-Jan-18 22:33N 31°40' E 121°12'10 9.6
2017-Jan-18 21:33N 31°34' E 121°21'0 0.0
2017-Jan-18 20:32N 31°34' E 121°21'0 0.1
2017-Jan-18 19:32N 31°34' E 121°21'0 0.1
2017-Jan-18 18:31N 31°34' E 121°21'0 0.0
2017-Jan-18 17:31N 31°34' E 121°21'0 0.0
2017-Jan-18 16:33N 31°34' E 121°21'0 0.0
2017-Jan-18 15:33N 31°34' E 121°21'0 0.0
2017-Jan-18 14:32N 31°34' E 121°21'0 0.0
2017-Jan-18 13:32N 31°34' E 121°21'0 0.0
2017-Jan-18 12:29N 31°34' E 121°21'0 0.1
2017-Jan-18 11:31N 31°34' E 121°21'0 0.1
2017-Jan-18 10:31N 31°34' E 121°21'0 0.0
2017-Jan-18 09:33N 31°34' E 121°21'4 4.0
2017-Jan-18 08:34N 31°31' E 121°24'1111.0
2017-Jan-18 07:34N 31°24' E 121°34'9 9.2
2017-Jan-18 06:34N 31°19' E 121°43'1211.7
2017-Jan-18 05:33N 31°10' E 121°52'1312.8
2017-Jan-18 04:33N 31°04' E 122°05'  
2017-Jan-12 19:33N 31°02' E 122°16'1414.5
2017-Jan-12 18:33N 31°06' E 121°59'1414.0
2017-Jan-12 17:33N 31°15' E 121°47'1110.8
2017-Jan-12 16:33N 31°22' E 121°37'8 7.9
2017-Jan-12 15:33N 31°26' E 121°29'5 5.0
2017-Jan-12 14:34N 31°30' E 121°25'1110.6
2017-Jan-12 13:33N 31°37' E 121°16'1312.6
2017-Jan-12 12:34N 31°45' E 121°05'3711.6
2017-Jan-12 09:24N 32°02' E 120°27'2 0.0
2017-Jan-10 11:31N 32°02' E 120°24'38 9.6
2017-Jan-10 07:33N 31°46' E 121°05'1211.9
2017-Jan-10 06:33N 31°38' E 121°15'1211.8
2017-Jan-10 05:33N 31°30' E 121°25'9 9.3
2017-Jan-10 04:33N 31°24' E 121°34'1010.1
2017-Jan-10 03:33N 31°18' E 121°43'1211.7
2017-Jan-10 02:33N 31°09' E 121°53'1111.3
2017-Jan-10 01:33N 31°04' E 122°04'1110.8
2017-Jan-10 00:33N 31°03' E 122°17'  

Dump ship's entire track history